Montellano, Spain
Current Conditions -  °F | °C
As of 9:00 PM on Tuesday 21 Oct 2014 (Local Time) from LEMO Reporting Station
Clear Clear  
Wind Chill: 77°   Ceiling: Unl
Heat Index: 78°   Visibility: 6mi
Dew Point: 54°   Wind: 5mph
Humidity: 44%   Direction: 50°NE
Pressure: 30.21"   Gusts: NA
Location:  37°N, 5.57°W
Report Text: LEMO 211900Z 05004KT CAVOK 25/12 Q1023 NOSIG
Loading
Personal Weather Stations






























Interactive Weather Map
Tropical Storm Tracking
New forecast layout! Learn more

10-Day Weather Forecast

Advertisements
Track Severe Weather on mobile